createdAt,value
2023-12-28T00:01:41.153Z,0.60
2023-12-28T00:04:07.609Z,0.60
2023-12-28T00:06:34.732Z,0.60
2023-12-28T00:09:08.331Z,0.60
2023-12-28T00:11:38.336Z,0.60
2023-12-28T00:14:04.755Z,0.70
2023-12-28T00:16:33.340Z,0.60
2023-12-28T00:19:00.909Z,0.60
2023-12-28T00:21:27.875Z,0.60
2023-12-28T00:23:54.256Z,0.60
2023-12-28T00:26:24.766Z,0.50
2023-12-28T00:28:51.246Z,0.60
2023-12-28T00:31:17.768Z,0.50
2023-12-28T00:33:44.263Z,0.60
2023-12-28T00:36:10.747Z,0.50
2023-12-28T00:38:37.259Z,0.50
2023-12-28T00:41:03.974Z,0.60
2023-12-28T00:43:30.349Z,0.50
2023-12-28T00:45:56.930Z,0.60
2023-12-28T00:48:23.619Z,0.60
2023-12-28T00:50:50.412Z,0.60
2023-12-28T00:53:16.872Z,0.60
2023-12-28T00:55:43.290Z,0.60
2023-12-28T00:58:09.677Z,0.50
2023-12-28T01:00:36.142Z,0.60
2023-12-28T01:03:03.101Z,0.50
2023-12-28T01:05:29.675Z,1.80
2023-12-28T01:07:56.513Z,0.50
2023-12-28T01:10:23.357Z,0.50
2023-12-28T01:12:49.872Z,0.50
2023-12-28T01:15:18.109Z,0.50
2023-12-28T01:17:44.974Z,0.60
2023-12-28T01:20:11.674Z,0.50
2023-12-28T01:22:38.075Z,0.50
2023-12-28T01:25:05.181Z,0.40
2023-12-28T01:27:31.555Z,0.40
2023-12-28T01:30:00.404Z,0.40
2023-12-28T01:32:26.846Z,0.30
2023-12-28T01:34:53.371Z,0.40
2023-12-28T01:37:19.827Z,0.30
2023-12-28T01:39:46.306Z,1.40
2023-12-28T01:42:12.919Z,0.30
2023-12-28T01:44:39.466Z,0.30
2023-12-28T01:47:06.115Z,0.30
2023-12-28T01:49:33.069Z,0.30
2023-12-28T01:52:01.552Z,0.30
2023-12-28T01:54:28.103Z,0.30
2023-12-28T01:56:54.505Z,0.40
2023-12-28T01:59:20.894Z,0.40
2023-12-28T02:01:48.025Z,0.50
2023-12-28T02:04:14.524Z,0.50
2023-12-28T02:06:41.092Z,0.40
2023-12-28T02:09:07.612Z,0.50
2023-12-28T02:11:34.945Z,2.00
2023-12-28T02:14:01.310Z,0.50
2023-12-28T02:16:34.192Z,0.40
2023-12-28T02:19:04.255Z,1.30
2023-12-28T02:21:30.889Z,0.30
2023-12-28T02:23:57.318Z,0.20
2023-12-28T02:26:23.727Z,0.20
2023-12-28T02:28:50.187Z,0.10
2023-12-28T02:31:27.090Z,1.40
2023-12-28T02:34:12.439Z,0.30
2023-12-28T02:36:38.939Z,0.20
2023-12-28T02:39:05.294Z,0.10
2023-12-28T02:41:31.702Z,0.10
2023-12-28T02:43:58.106Z,2.40
2023-12-28T02:46:24.590Z,0.00
2023-12-28T02:48:51.736Z,0.10
2023-12-28T02:51:18.327Z,0.00
2023-12-28T02:53:44.724Z,0.10
2023-12-28T02:56:11.190Z,0.00
2023-12-28T02:58:37.630Z,0.00
2023-12-28T03:01:04.350Z,0.00
2023-12-28T03:03:30.937Z,0.10
2023-12-28T03:05:57.784Z,0.00
2023-12-28T03:08:24.276Z,0.10
2023-12-28T03:10:50.680Z,0.20
2023-12-28T03:13:17.053Z,0.30
2023-12-28T03:15:43.585Z,0.40
2023-12-28T03:18:10.013Z,0.40
2023-12-28T03:20:36.496Z,0.40
2023-12-28T03:23:03.228Z,0.40
2023-12-28T03:25:29.662Z,0.20
2023-12-28T03:27:56.252Z,0.10
2023-12-28T03:30:23.057Z,0.20
2023-12-28T03:32:49.504Z,0.20
2023-12-28T03:35:15.918Z,0.00
2023-12-28T03:37:42.354Z,0.00
2023-12-28T03:40:09.412Z,-0.10
2023-12-28T03:42:35.916Z,-0.10
2023-12-28T03:45:02.321Z,-0.10
2023-12-28T03:47:28.825Z,0.00
2023-12-28T03:49:57.600Z,0.10
2023-12-28T03:52:28.156Z,0.10
2023-12-28T03:54:54.577Z,0.10
2023-12-28T03:57:21.130Z,0.00
2023-12-28T03:59:48.277Z,0.10
2023-12-28T04:02:14.765Z,2.60
2023-12-28T04:04:41.451Z,0.00
2023-12-28T04:07:08.482Z,0.00
2023-12-28T04:09:35.267Z,0.00
2023-12-28T04:12:01.739Z,-0.10
2023-12-28T04:14:28.127Z,-0.10
2023-12-28T04:16:54.546Z,-0.10
2023-12-28T04:19:21.556Z,-0.10
2023-12-28T04:21:48.298Z,0.00
2023-12-28T04:24:14.702Z,0.00
2023-12-28T04:26:41.156Z,0.00
2023-12-28T04:29:07.818Z,0.00
2023-12-28T04:31:34.438Z,0.00
2023-12-28T04:34:00.984Z,0.00
2023-12-28T04:36:27.476Z,-0.10
2023-12-28T04:38:54.434Z,-0.20
2023-12-28T04:41:21.453Z,-0.20
2023-12-28T04:43:47.827Z,-0.10
2023-12-28T04:46:14.345Z,-0.10
2023-12-28T04:48:40.951Z,0.00
2023-12-28T04:51:07.438Z,-0.10
2023-12-28T04:53:34.644Z,-0.10
2023-12-28T04:56:01.067Z,-0.20
2023-12-28T04:58:27.428Z,-0.10
2023-12-28T05:00:53.905Z,-0.10
2023-12-28T05:03:21.209Z,0.00
2023-12-28T05:05:48.192Z,0.20
2023-12-28T05:08:14.672Z,0.30
2023-12-28T05:10:41.416Z,0.30
2023-12-28T05:13:07.825Z,0.30
2023-12-28T05:15:34.314Z,0.40
2023-12-28T05:18:01.092Z,0.30
2023-12-28T05:20:27.807Z,0.50
2023-12-28T05:22:54.245Z,0.30
2023-12-28T05:25:20.658Z,0.30
2023-12-28T05:27:47.085Z,0.40
2023-12-28T05:30:14.075Z,0.40
2023-12-28T05:32:40.879Z,0.50
2023-12-28T05:35:07.914Z,0.50
2023-12-28T05:37:34.317Z,0.50
2023-12-28T05:40:01.149Z,0.50
2023-12-28T05:42:27.628Z,0.50
2023-12-28T05:44:54.014Z,0.40
2023-12-28T05:47:20.505Z,0.40
2023-12-28T05:49:47.180Z,0.30
2023-12-28T05:52:15.804Z,0.30
2023-12-28T05:54:44.633Z,0.30
2023-12-28T05:57:11.341Z,0.20
2023-12-28T05:59:40.939Z,1.00
2023-12-28T06:02:07.538Z,0.10
2023-12-28T06:04:34.653Z,1.30
2023-12-28T06:07:01.238Z,1.30
2023-12-28T06:09:28.344Z,0.20
2023-12-28T06:11:54.908Z,0.00
2023-12-28T06:14:21.285Z,-0.10
2023-12-28T06:16:47.787Z,-0.10
2023-12-28T06:19:14.262Z,-0.10
2023-12-28T06:21:42.772Z,0.00
2023-12-28T06:24:09.193Z,0.00
2023-12-28T06:26:40.442Z,0.20
2023-12-28T06:29:07.093Z,0.30
2023-12-28T06:31:36.605Z,0.40
2023-12-28T06:34:04.192Z,0.70
2023-12-28T06:36:31.094Z,0.60
2023-12-28T06:38:57.855Z,0.90
2023-12-28T06:41:24.758Z,0.90
2023-12-28T06:43:51.368Z,0.90
2023-12-28T06:46:18.642Z,1.00
2023-12-28T06:48:45.379Z,1.00
2023-12-28T06:51:21.463Z,3.30
2023-12-28T06:53:49.018Z,0.70
2023-12-28T06:56:15.706Z,0.60
2023-12-28T06:58:42.312Z,0.60
2023-12-28T07:01:08.915Z,0.70
2023-12-28T07:03:35.683Z,0.70
2023-12-28T07:06:04.017Z,0.90
2023-12-28T07:08:32.494Z,1.20
2023-12-28T07:11:00.549Z,1.40
2023-12-28T07:13:27.167Z,1.80
2023-12-28T07:15:55.293Z,2.30
2023-12-28T07:18:24.150Z,1.30
2023-12-28T07:20:51.409Z,3.10
2023-12-28T07:23:17.866Z,3.90
2023-12-28T07:25:44.289Z,4.30
2023-12-28T07:28:10.752Z,4.50
2023-12-28T07:30:38.470Z,4.60
2023-12-28T07:33:05.188Z,4.70
2023-12-28T07:35:31.717Z,5.00
2023-12-28T07:37:58.398Z,5.20
2023-12-28T07:40:25.011Z,5.40
2023-12-28T07:42:51.475Z,5.40
2023-12-28T07:45:23.510Z,5.30
2023-12-28T07:47:51.509Z,5.30
2023-12-28T07:50:18.221Z,5.30
2023-12-28T07:52:45.335Z,5.20
2023-12-28T07:55:11.885Z,5.20
2023-12-28T07:57:38.459Z,5.20
2023-12-28T08:00:06.156Z,5.10
2023-12-28T08:02:32.545Z,5.20
2023-12-28T08:04:59.165Z,5.20
2023-12-28T08:07:25.610Z,5.20
2023-12-28T08:09:54.469Z,5.10
2023-12-28T08:12:21.831Z,5.20
2023-12-28T08:14:48.297Z,5.30
2023-12-28T08:17:14.706Z,5.30
2023-12-28T08:19:41.260Z,5.40
2023-12-28T08:22:07.955Z,5.50
2023-12-28T08:24:35.037Z,7.10
2023-12-28T08:27:01.549Z,5.50
2023-12-28T08:29:27.907Z,5.70
2023-12-28T08:31:54.475Z,5.80
2023-12-28T08:34:21.123Z,5.90
2023-12-28T08:36:47.756Z,6.00
2023-12-28T08:39:14.252Z,6.10
2023-12-28T08:41:40.725Z,6.20
2023-12-28T08:44:07.355Z,6.90
2023-12-28T08:46:33.805Z,6.50
2023-12-28T08:49:00.338Z,6.70
2023-12-28T08:51:26.939Z,6.90
2023-12-28T08:53:53.624Z,7.00
2023-12-28T08:56:20.997Z,7.20
2023-12-28T08:58:52.931Z,7.30
2023-12-28T09:01:22.552Z,7.40
2023-12-28T09:03:56.531Z,7.60
2023-12-28T09:06:23.060Z,7.70
2023-12-28T09:08:52.776Z,7.80
2023-12-28T09:11:19.446Z,7.90
2023-12-28T09:13:45.800Z,9.50
2023-12-28T09:16:13.565Z,8.00
2023-12-28T09:18:40.429Z,8.00
2023-12-28T09:21:07.740Z,8.20
2023-12-28T09:23:36.750Z,8.30
2023-12-28T09:26:05.291Z,8.30
2023-12-28T09:28:32.457Z,8.40
2023-12-28T09:30:59.184Z,8.40
2023-12-28T09:33:25.729Z,9.10
2023-12-28T09:35:53.916Z,8.30
2023-12-28T09:38:20.396Z,8.40
2023-12-28T09:40:47.126Z,8.50
2023-12-28T09:43:26.287Z,8.50
2023-12-28T09:45:53.350Z,8.50
2023-12-28T09:48:21.380Z,8.60
2023-12-28T09:50:55.691Z,8.60
2023-12-28T09:53:26.700Z,8.60
2023-12-28T09:55:53.473Z,8.60
2023-12-28T09:58:20.815Z,8.60
2023-12-28T10:00:50.709Z,8.60
2023-12-28T10:03:17.934Z,8.60
2023-12-28T10:05:45.962Z,8.70
2023-12-28T10:08:16.034Z,8.80
2023-12-28T10:10:44.314Z,9.60
2023-12-28T10:13:11.836Z,8.90
2023-12-28T10:15:38.367Z,8.90
2023-12-28T10:18:08.046Z,8.90
2023-12-28T10:20:34.588Z,8.90
2023-12-28T10:23:01.880Z,9.00
2023-12-28T10:25:30.201Z,9.00
2023-12-28T10:27:56.668Z,9.10
2023-12-28T10:30:23.321Z,9.00
2023-12-28T10:32:50.318Z,9.00
2023-12-28T10:35:17.576Z,9.00
2023-12-28T10:37:45.902Z,9.00
2023-12-28T10:40:17.941Z,8.90
2023-12-28T10:43:05.563Z,8.90
2023-12-28T10:45:35.619Z,9.00
2023-12-28T10:48:09.465Z,9.00
2023-12-28T10:50:51.892Z,9.00
2023-12-28T11:05:13.993Z,8.90
2023-12-28T11:07:40.699Z,9.10
2023-12-28T11:10:10.972Z,9.20
2023-12-28T11:12:38.101Z,11.10
2023-12-28T11:15:10.510Z,9.20
2023-12-28T11:17:37.358Z,9.30
2023-12-28T11:20:05.960Z,9.30
2023-12-28T11:22:32.314Z,9.30
2023-12-28T11:24:59.444Z,9.30
2023-12-28T11:27:26.933Z,9.60
2023-12-28T11:29:54.085Z,10.90
2023-12-28T11:32:24.100Z,9.50
2023-12-28T11:35:02.702Z,9.50
2023-12-28T11:37:30.246Z,9.60
2023-12-28T11:39:58.597Z,9.50
2023-12-28T11:42:25.789Z,9.50
2023-12-28T11:44:57.593Z,9.50
2023-12-28T11:47:25.444Z,9.50
2023-12-28T11:49:55.404Z,9.50
2023-12-28T11:52:29.377Z,9.60
2023-12-28T11:54:56.151Z,11.40
2023-12-28T11:57:23.351Z,9.70
2023-12-28T11:59:57.397Z,9.50
2023-12-28T12:02:24.632Z,9.50
2023-12-28T12:04:53.094Z,9.50
2023-12-28T12:07:20.605Z,9.50
2023-12-28T12:09:47.056Z,9.50
2023-12-28T12:12:13.568Z,9.50
2023-12-28T12:14:40.368Z,9.50
2023-12-28T12:17:06.964Z,9.40
2023-12-28T12:19:36.091Z,9.40
2023-12-28T12:22:02.976Z,9.30
2023-12-28T12:24:29.519Z,9.30
2023-12-28T12:26:56.070Z,9.30
2023-12-28T12:29:29.007Z,9.20
2023-12-28T12:31:57.062Z,9.50
2023-12-28T12:34:23.837Z,9.20
2023-12-28T12:36:52.967Z,9.20
2023-12-28T12:39:19.418Z,9.10
2023-12-28T12:41:47.072Z,9.00
2023-12-28T12:44:13.474Z,8.90
2023-12-28T12:46:42.362Z,8.90
2023-12-28T12:49:08.926Z,8.80
2023-12-28T12:51:35.761Z,8.80
2023-12-28T12:54:05.752Z,8.70
2023-12-28T12:56:32.194Z,8.80
2023-12-28T12:58:58.864Z,8.70
2023-12-28T13:01:26.537Z,11.50
2023-12-28T13:03:53.266Z,8.70
2023-12-28T13:06:23.373Z,8.70
2023-12-28T13:08:49.830Z,8.70
2023-12-28T13:11:19.341Z,8.60
2023-12-28T13:13:45.695Z,8.60
2023-12-28T13:16:12.228Z,8.50
2023-12-28T13:18:39.704Z,8.50
2023-12-28T13:21:13.635Z,8.50
2023-12-28T13:23:40.046Z,8.40
2023-12-28T13:26:06.536Z,8.30
2023-12-28T13:28:32.946Z,8.30
2023-12-28T13:30:59.416Z,8.30
2023-12-28T13:33:26.130Z,8.20
2023-12-28T13:35:53.860Z,8.20
2023-12-28T13:38:20.287Z,8.20
2023-12-28T13:40:46.737Z,8.20
2023-12-28T13:43:13.227Z,8.10
2023-12-28T13:45:39.683Z,8.00
2023-12-28T13:48:07.129Z,8.00
2023-12-28T13:50:33.714Z,7.90
2023-12-28T13:53:00.597Z,7.90
2023-12-28T13:55:29.816Z,7.80
2023-12-28T13:57:57.264Z,7.60
2023-12-28T14:00:24.327Z,7.40
2023-12-28T14:02:50.714Z,7.40
2023-12-28T14:05:17.419Z,7.30
2023-12-28T14:07:44.072Z,7.30
2023-12-28T14:10:10.669Z,7.20
2023-12-28T14:12:37.295Z,7.50
2023-12-28T14:15:05.984Z,7.10
2023-12-28T14:17:32.357Z,6.90
2023-12-28T14:19:59.095Z,6.80
2023-12-28T14:22:26.259Z,6.70
2023-12-28T14:24:54.830Z,6.80
2023-12-28T14:27:22.747Z,6.70
2023-12-28T14:29:51.372Z,6.70
2023-12-28T14:32:18.290Z,6.70
2023-12-28T14:34:45.365Z,6.70
2023-12-28T14:37:11.881Z,6.70
2023-12-28T14:39:38.699Z,6.60
2023-12-28T14:42:05.492Z,6.60
2023-12-28T14:44:31.950Z,6.40
2023-12-28T14:46:58.468Z,6.30
2023-12-28T14:49:25.008Z,6.20
2023-12-28T14:51:51.738Z,6.20
2023-12-28T14:54:18.156Z,6.20
2023-12-28T14:56:51.917Z,6.00
2023-12-28T14:59:21.912Z,5.90
2023-12-28T15:01:50.104Z,5.80
2023-12-28T15:04:21.804Z,5.70
2023-12-28T15:06:50.141Z,5.60
2023-12-28T15:09:16.560Z,5.40
2023-12-28T15:11:48.494Z,5.20
2023-12-28T15:14:16.962Z,5.00
2023-12-28T15:16:46.565Z,4.90
2023-12-28T15:19:13.865Z,4.80
2023-12-28T15:21:40.724Z,4.70
2023-12-28T15:24:07.850Z,4.60
2023-12-28T15:26:34.392Z,4.40
2023-12-28T15:29:01.185Z,4.20
2023-12-28T15:31:27.739Z,4.50
2023-12-28T15:33:54.392Z,4.10
2023-12-28T15:36:24.390Z,4.50
2023-12-28T15:38:53.435Z,3.90
2023-12-28T15:41:19.854Z,3.90
2023-12-28T15:43:48.286Z,3.90
2023-12-28T15:46:15.924Z,3.90
2023-12-28T15:48:42.414Z,4.00
2023-12-28T15:51:09.365Z,4.10
2023-12-28T15:53:35.877Z,4.00
2023-12-28T15:56:12.253Z,4.10
2023-12-28T15:58:47.606Z,4.10
2023-12-28T16:01:15.946Z,4.10
2023-12-28T16:03:42.520Z,4.30
2023-12-28T16:06:09.941Z,4.30
2023-12-28T16:08:36.422Z,4.30
2023-12-28T16:11:03.256Z,4.30
2023-12-28T16:13:29.766Z,4.40
2023-12-28T16:15:56.582Z,4.50
2023-12-28T16:18:24.711Z,4.50
2023-12-28T16:20:51.665Z,4.40
2023-12-28T16:23:18.490Z,4.40
2023-12-28T16:25:44.875Z,4.40
2023-12-28T16:28:11.965Z,4.40
2023-12-28T16:30:39.444Z,4.50
2023-12-28T16:33:08.730Z,4.40
2023-12-28T16:35:35.121Z,4.30
2023-12-28T16:38:01.758Z,4.20
2023-12-28T16:40:28.279Z,4.20
2023-12-28T16:42:54.915Z,4.20
2023-12-28T16:45:23.872Z,4.10
2023-12-28T16:47:51.037Z,4.00
2023-12-28T16:50:19.463Z,3.90
2023-12-28T16:52:45.865Z,3.80
2023-12-28T16:55:12.315Z,3.80
2023-12-28T16:57:38.973Z,3.60
2023-12-28T17:00:11.737Z,3.50
2023-12-28T17:02:39.376Z,3.60
2023-12-28T17:05:06.768Z,3.50
2023-12-28T17:07:33.532Z,3.40
2023-12-28T17:10:03.402Z,3.40
2023-12-28T17:12:44.131Z,3.30
2023-12-28T17:15:11.277Z,3.20
2023-12-28T17:17:38.677Z,3.20
2023-12-28T17:20:06.111Z,3.10
2023-12-28T17:22:33.577Z,3.00
2023-12-28T17:27:39.717Z,3.00
2023-12-28T17:30:12.005Z,2.90
2023-12-28T17:32:38.494Z,2.80
2023-12-28T17:35:08.332Z,2.70
2023-12-28T17:37:36.773Z,2.60
2023-12-28T17:40:04.008Z,2.20
2023-12-28T17:42:30.815Z,2.20
2023-12-28T17:44:59.545Z,2.00
2023-12-28T17:48:09.806Z,2.00
2023-12-28T17:50:38.611Z,1.90
2023-12-28T17:53:05.819Z,1.90
2023-12-28T17:55:32.329Z,1.80
2023-12-28T17:57:59.220Z,1.70
2023-12-28T18:00:26.112Z,1.70
2023-12-28T18:02:52.569Z,1.60
2023-12-28T18:05:19.382Z,1.50
2023-12-28T18:07:45.858Z,1.40
2023-12-28T18:10:12.409Z,1.90
2023-12-28T18:12:38.931Z,1.60
2023-12-28T18:15:06.172Z,1.60
2023-12-28T18:17:35.542Z,1.70
2023-12-28T18:20:07.021Z,1.60
2023-12-28T18:22:33.412Z,1.70
2023-12-28T18:25:01.826Z,1.60
2023-12-28T18:27:31.575Z,1.60
2023-12-28T18:29:58.037Z,1.60
2023-12-28T18:32:24.449Z,1.60
2023-12-28T18:34:53.378Z,1.50
2023-12-28T18:37:21.721Z,1.40
2023-12-28T18:39:48.498Z,1.40
2023-12-28T18:42:14.898Z,1.40
2023-12-28T18:44:43.485Z,1.40
2023-12-28T18:47:11.385Z,1.40
2023-12-28T18:49:38.063Z,1.40
2023-12-28T18:52:05.057Z,1.50
2023-12-28T18:54:31.642Z,1.30
2023-12-28T18:56:58.165Z,1.30
2023-12-28T18:59:27.890Z,1.30
2023-12-28T19:01:54.544Z,1.30
2023-12-28T19:04:21.503Z,1.40
2023-12-28T19:06:48.799Z,2.50
2023-12-28T19:09:15.293Z,1.60
2023-12-28T19:11:42.043Z,1.50
2023-12-28T19:14:08.928Z,1.50
2023-12-28T19:16:35.355Z,1.50
2023-12-28T19:19:01.941Z,1.40
2023-12-28T19:21:28.504Z,1.30
2023-12-28T19:23:54.959Z,1.30
2023-12-28T19:26:21.430Z,1.40
2023-12-28T19:28:47.902Z,1.30
2023-12-28T19:31:16.322Z,1.30
2023-12-28T19:33:45.442Z,1.90
2023-12-28T19:36:12.142Z,1.50
2023-12-28T19:38:39.929Z,1.50
2023-12-28T19:41:11.073Z,1.50
2023-12-28T19:43:38.411Z,1.70
2023-12-28T19:46:05.086Z,1.60
2023-12-28T19:48:31.994Z,1.70
2023-12-28T19:50:59.016Z,-1.50
2023-12-28T19:54:12.041Z,1.60
2023-12-28T19:56:38.759Z,1.50
2023-12-28T19:59:10.810Z,1.60
2023-12-28T20:01:37.352Z,1.60
2023-12-28T20:04:06.398Z,1.70
2023-12-28T20:06:32.936Z,1.80
2023-12-28T20:08:59.433Z,2.10
2023-12-28T20:11:26.716Z,1.70
2023-12-28T20:17:34.548Z,1.70
2023-12-28T20:20:04.448Z,1.60
2023-12-28T20:22:31.139Z,1.50
2023-12-28T20:24:57.623Z,1.40
2023-12-28T20:27:24.186Z,1.30
2023-12-28T20:29:50.595Z,1.30
2023-12-28T20:32:16.983Z,1.20
2023-12-28T20:34:43.563Z,1.20
2023-12-28T20:37:10.193Z,1.10
2023-12-28T20:39:36.674Z,1.10
2023-12-28T20:42:04.564Z,1.10
2023-12-28T20:44:31.780Z,1.20
2023-12-28T20:46:58.143Z,1.20
2023-12-28T20:49:31.999Z,-0.90
2023-12-28T20:52:06.140Z,1.20
2023-12-28T20:54:33.425Z,1.20
2023-12-28T20:57:01.280Z,1.50
2023-12-28T20:59:27.763Z,3.00
2023-12-28T21:01:54.289Z,1.00
2023-12-28T21:04:20.920Z,0.90
2023-12-28T21:06:47.405Z,0.90
2023-12-28T21:09:15.454Z,1.00
2023-12-28T21:11:43.461Z,1.00
2023-12-28T21:14:14.886Z,1.10
2023-12-28T21:16:41.682Z,1.10
2023-12-28T21:19:08.262Z,1.10
2023-12-28T21:21:36.227Z,1.20
2023-12-28T21:24:03.015Z,1.00
2023-12-28T21:26:30.025Z,1.00
2023-12-28T21:28:56.419Z,1.20
2023-12-28T21:31:23.013Z,0.80
2023-12-28T21:33:49.784Z,0.80
2023-12-28T21:36:17.148Z,0.90
2023-12-28T21:38:45.981Z,0.90
2023-12-28T21:41:12.820Z,0.90
2023-12-28T21:43:40.044Z,0.90
2023-12-28T21:46:06.605Z,0.90
2023-12-28T21:48:34.608Z,0.90
2023-12-28T21:51:01.103Z,0.90
2023-12-28T21:53:27.633Z,0.90
2023-12-28T21:55:54.034Z,0.90
2023-12-28T21:58:20.579Z,1.00
2023-12-28T22:00:47.453Z,1.10
2023-12-28T22:03:13.953Z,1.20
2023-12-28T22:05:41.575Z,1.20
2023-12-28T22:08:08.020Z,1.20
2023-12-28T22:10:34.779Z,1.30
2023-12-28T22:13:01.228Z,1.30
2023-12-28T22:15:30.042Z,1.30
2023-12-28T22:17:57.232Z,1.30
2023-12-28T22:20:26.360Z,1.30
2023-12-28T22:22:54.664Z,1.40
2023-12-28T22:25:21.086Z,1.40
2023-12-28T22:27:47.861Z,1.50
2023-12-28T22:30:15.071Z,1.30
2023-12-28T22:32:41.858Z,1.30
2023-12-28T22:35:08.675Z,1.40
2023-12-28T22:37:35.290Z,1.40
2023-12-28T22:40:02.608Z,1.40
2023-12-28T22:42:29.682Z,1.40
2023-12-28T22:44:56.172Z,1.50
2023-12-28T22:47:26.034Z,0.30
2023-12-28T22:49:52.465Z,1.60
2023-12-28T22:52:19.252Z,1.60
2023-12-28T22:54:45.827Z,1.60
2023-12-28T22:57:12.252Z,1.60
2023-12-28T22:59:43.763Z,1.90
2023-12-28T23:02:10.821Z,1.60
2023-12-28T23:04:45.925Z,1.60
2023-12-28T23:07:17.687Z,1.60
2023-12-28T23:09:44.085Z,1.70
2023-12-28T23:12:10.807Z,1.70
2023-12-28T23:14:37.277Z,1.90
2023-12-28T23:17:03.847Z,1.80
2023-12-28T23:19:30.353Z,1.80
2023-12-28T23:21:56.912Z,1.90
2023-12-28T23:24:24.511Z,2.00
2023-12-28T23:26:54.370Z,2.00
2023-12-28T23:29:20.810Z,2.00
2023-12-28T23:31:47.357Z,2.00
2023-12-28T23:34:22.209Z,2.00
2023-12-28T23:36:55.917Z,2.00
2023-12-28T23:39:22.331Z,2.10
2023-12-28T23:41:48.712Z,2.10
2023-12-28T23:44:15.199Z,2.30
2023-12-28T23:46:41.504Z,2.30
2023-12-28T23:49:07.960Z,2.30
2023-12-28T23:51:34.529Z,2.40
2023-12-28T23:54:00.922Z,2.50
2023-12-28T23:56:27.304Z,2.40
2023-12-28T23:58:53.711Z,2.40
